createdAt,value
2023-05-05T00:02:26.474Z,2.93
2023-05-05T00:04:53.295Z,2.80
2023-05-05T00:07:19.840Z,3.10
2023-05-05T00:09:46.367Z,2.70
2023-05-05T00:12:12.962Z,3.13
2023-05-05T00:14:39.454Z,3.20
2023-05-05T00:17:06.057Z,2.90
2023-05-05T00:19:32.697Z,3.00
2023-05-05T00:21:59.359Z,2.80
2023-05-05T00:24:25.906Z,2.90
2023-05-05T00:26:52.471Z,3.37
2023-05-05T00:29:19.022Z,3.07
2023-05-05T00:31:45.504Z,2.80
2023-05-05T00:34:12.008Z,2.80
2023-05-05T00:36:38.630Z,2.60
2023-05-05T00:39:05.164Z,2.50
2023-05-05T00:41:31.691Z,2.63
2023-05-05T00:43:58.210Z,2.60
2023-05-05T00:46:28.058Z,2.97
2023-05-05T00:48:55.280Z,3.20
2023-05-05T00:51:22.791Z,2.87
2023-05-05T00:53:49.957Z,2.77
2023-05-05T00:56:22.109Z,2.70
2023-05-05T00:58:49.388Z,2.63
2023-05-05T01:01:16.726Z,2.77
2023-05-05T01:03:43.577Z,2.47
2023-05-05T01:06:23.023Z,2.47
2023-05-05T01:09:05.982Z,2.60
2023-05-05T01:11:51.708Z,2.30
2023-05-05T01:14:24.514Z,2.60
2023-05-05T01:16:59.346Z,2.60
2023-05-05T01:19:44.717Z,2.50
2023-05-05T01:22:15.142Z,2.27
2023-05-05T01:25:27.056Z,2.47
2023-05-05T01:28:24.538Z,2.43
2023-05-05T01:31:09.413Z,3.23
2023-05-05T01:33:49.674Z,4.13
2023-05-05T01:36:25.998Z,2.57
2023-05-05T01:38:58.110Z,2.50
2023-05-05T01:41:30.322Z,2.40
2023-05-05T01:43:59.193Z,2.37
2023-05-05T01:46:27.135Z,2.40
2023-05-05T01:48:56.804Z,2.70
2023-05-05T01:51:24.804Z,2.47
2023-05-05T01:53:58.509Z,2.77
2023-05-05T01:56:26.430Z,3.03
2023-05-05T01:58:54.692Z,2.97
2023-05-05T02:01:24.311Z,2.97
2023-05-05T02:03:52.548Z,3.07
2023-05-05T02:06:21.653Z,3.20
2023-05-05T02:08:50.090Z,3.00
2023-05-05T02:11:17.919Z,2.90
2023-05-05T02:13:46.396Z,2.90
2023-05-05T02:16:13.924Z,3.00
2023-05-05T02:18:42.441Z,2.53
2023-05-05T02:21:09.601Z,2.50
2023-05-05T02:23:36.437Z,2.67
2023-05-05T02:26:07.090Z,2.90
2023-05-05T02:28:42.135Z,2.43
2023-05-05T02:31:10.964Z,2.23
2023-05-05T02:33:39.299Z,2.80
2023-05-05T02:36:14.765Z,2.60
2023-05-05T02:38:44.954Z,2.40
2023-05-05T02:41:16.725Z,2.30
2023-05-05T02:43:45.002Z,2.67
2023-05-05T02:46:11.704Z,2.83
2023-05-05T02:48:38.297Z,2.93
2023-05-05T02:51:05.854Z,2.20
2023-05-05T02:53:32.605Z,2.70
2023-05-05T02:56:17.989Z,2.60
2023-05-05T02:59:07.778Z,2.30
2023-05-05T03:01:47.872Z,2.70
2023-05-05T03:04:25.126Z,2.80
2023-05-05T03:06:57.454Z,2.40
2023-05-05T03:09:36.957Z,2.30
2023-05-05T03:12:10.073Z,2.40
2023-05-05T03:14:41.594Z,2.43
2023-05-05T03:17:12.748Z,2.80
2023-05-05T03:19:42.147Z,2.70
2023-05-05T03:22:08.970Z,3.17
2023-05-05T03:24:35.539Z,3.00
2023-05-05T03:27:02.870Z,2.50
2023-05-05T03:29:30.218Z,2.53
2023-05-05T03:31:56.821Z,2.67
2023-05-05T03:34:23.496Z,2.57
2023-05-05T03:36:50.138Z,2.30
2023-05-05T03:39:17.095Z,2.23
2023-05-05T03:41:43.662Z,2.60
2023-05-05T03:44:10.591Z,3.30
2023-05-05T03:46:37.151Z,3.43
2023-05-05T03:49:03.739Z,3.60
2023-05-05T03:51:31.510Z,3.33
2023-05-05T03:53:57.997Z,3.50
2023-05-05T03:56:24.548Z,3.87
2023-05-05T03:58:51.109Z,4.13
2023-05-05T04:01:17.635Z,3.57
2023-05-05T04:03:44.349Z,3.77
2023-05-05T04:06:11.585Z,3.80
2023-05-05T04:08:38.117Z,3.80
2023-05-05T04:11:04.725Z,3.73
2023-05-05T04:13:31.429Z,3.83
2023-05-05T04:15:59.813Z,3.80
2023-05-05T04:18:26.454Z,4.30
2023-05-05T04:20:53.146Z,4.00
2023-05-05T04:23:19.763Z,3.73
2023-05-05T04:25:46.507Z,3.80
2023-05-05T04:28:13.049Z,3.40
2023-05-05T04:30:39.963Z,4.07
2023-05-05T04:33:06.573Z,4.40
2023-05-05T04:35:33.195Z,3.87
2023-05-05T04:37:59.853Z,3.70
2023-05-05T04:40:26.845Z,3.60
2023-05-05T04:42:53.484Z,3.70
2023-05-05T04:45:20.142Z,4.20
2023-05-05T04:47:46.793Z,3.63
2023-05-05T04:50:13.814Z,3.70
2023-05-05T04:52:40.416Z,3.80
2023-05-05T04:55:09.080Z,3.80
2023-05-05T04:57:35.715Z,4.20
2023-05-05T05:00:04.751Z,3.93
2023-05-05T05:02:31.455Z,3.53
2023-05-05T05:04:58.244Z,3.77
2023-05-05T05:07:24.867Z,4.27
2023-05-05T05:09:51.607Z,3.97
2023-05-05T05:12:18.172Z,3.90
2023-05-05T05:14:44.764Z,3.40
2023-05-05T05:17:11.539Z,4.00
2023-05-05T05:19:38.054Z,3.77
2023-05-05T05:22:04.728Z,3.57
2023-05-05T05:24:31.258Z,3.30
2023-05-05T05:26:58.675Z,3.53
2023-05-05T05:29:25.442Z,3.57
2023-05-05T05:31:52.115Z,3.93
2023-05-05T05:34:18.674Z,3.97
2023-05-05T05:36:45.173Z,3.90
2023-05-05T05:39:11.684Z,4.13
2023-05-05T05:41:38.252Z,3.70
2023-05-05T05:44:05.030Z,3.80
2023-05-05T05:46:31.600Z,3.80
2023-05-05T05:48:58.307Z,4.13
2023-05-05T05:51:24.873Z,3.87
2023-05-05T05:53:51.917Z,4.17
2023-05-05T05:56:18.445Z,3.80
2023-05-05T05:58:45.370Z,3.80
2023-05-05T06:01:12.125Z,3.80
2023-05-05T06:03:38.805Z,3.80
2023-05-05T06:06:05.782Z,3.50
2023-05-05T06:08:32.442Z,3.80
2023-05-05T06:11:00.622Z,4.03
2023-05-05T06:13:27.471Z,3.90
2023-05-05T06:15:54.060Z,3.73
2023-05-05T06:18:20.700Z,5.20
2023-05-05T06:20:51.092Z,6.60
2023-05-05T06:23:18.244Z,6.47
2023-05-05T06:25:44.906Z,5.53
2023-05-05T06:28:11.640Z,5.80
2023-05-05T06:30:38.306Z,4.80
2023-05-05T06:33:04.981Z,4.87
2023-05-05T06:35:32.053Z,3.80
2023-05-05T06:37:58.638Z,4.27
2023-05-05T06:40:25.514Z,3.77
2023-05-05T06:42:52.241Z,4.00
2023-05-05T06:45:18.911Z,4.23
2023-05-05T06:47:45.540Z,2.97
2023-05-05T06:50:12.300Z,3.00
2023-05-05T06:52:38.880Z,15.90
2023-05-05T06:55:05.964Z,6.60
2023-05-05T06:57:32.551Z,5.90
2023-05-05T06:59:59.154Z,3.13
2023-05-05T07:02:26.973Z,6.37
2023-05-05T07:04:55.415Z,5.90
2023-05-05T07:07:22.151Z,9.10
2023-05-05T07:09:48.713Z,3.87
2023-05-05T07:12:15.348Z,3.47
2023-05-05T07:14:42.158Z,3.67
2023-05-05T07:17:08.730Z,2.50
2023-05-05T07:19:35.283Z,3.00
2023-05-05T07:22:01.867Z,3.13
2023-05-05T07:24:28.403Z,2.70
2023-05-05T07:26:55.096Z,2.87
2023-05-05T07:29:21.755Z,2.77
2023-05-05T07:31:48.515Z,2.63
2023-05-05T07:34:15.131Z,2.80
2023-05-05T07:36:42.073Z,3.20
2023-05-05T07:39:08.683Z,3.30
2023-05-05T07:41:35.261Z,3.10
2023-05-05T07:44:01.810Z,2.87
2023-05-05T07:46:28.405Z,2.80
2023-05-05T07:48:55.060Z,3.10
2023-05-05T07:51:21.634Z,3.20
2023-05-05T07:53:48.186Z,3.17
2023-05-05T07:56:14.805Z,3.33
2023-05-05T07:58:42.307Z,2.93
2023-05-05T08:01:11.135Z,3.20
2023-05-05T08:03:38.119Z,3.13
2023-05-05T08:06:10.568Z,3.33
2023-05-05T08:08:37.453Z,3.27
2023-05-05T08:11:06.429Z,3.30
2023-05-05T08:13:33.096Z,3.60
2023-05-05T08:15:59.759Z,4.23
2023-05-05T08:18:26.632Z,3.60
2023-05-05T08:20:54.668Z,3.40
2023-05-05T08:23:21.597Z,3.80
2023-05-05T08:25:48.229Z,3.30
2023-05-05T08:28:14.757Z,3.50
2023-05-05T08:30:41.813Z,3.57
2023-05-05T08:33:08.527Z,3.30
2023-05-05T08:35:35.253Z,3.30
2023-05-05T08:38:02.095Z,3.40
2023-05-05T08:40:33.887Z,3.53
2023-05-05T08:43:01.428Z,3.00
2023-05-05T08:45:31.439Z,2.87
2023-05-05T08:48:01.754Z,3.33
2023-05-05T08:50:30.042Z,3.33
2023-05-05T08:53:11.593Z,3.67
2023-05-05T08:55:50.461Z,3.27
2023-05-05T08:58:19.340Z,3.30
2023-05-05T09:00:46.463Z,3.70
2023-05-05T09:03:13.510Z,3.80
2023-05-05T09:05:42.678Z,3.17
2023-05-05T09:08:11.466Z,3.10
2023-05-05T09:10:41.773Z,3.50
2023-05-05T09:13:08.697Z,3.47
2023-05-05T09:15:35.262Z,3.93
2023-05-05T09:18:02.455Z,3.27
2023-05-05T09:20:39.900Z,3.30
2023-05-05T09:23:14.547Z,3.20
2023-05-05T09:25:43.546Z,3.10
2023-05-05T09:28:12.326Z,3.27
2023-05-05T09:30:40.218Z,3.77
2023-05-05T09:33:07.151Z,3.10
2023-05-05T09:35:55.756Z,3.60
2023-05-05T09:38:24.085Z,3.37
2023-05-05T09:40:52.808Z,2.63
2023-05-05T09:43:21.637Z,2.87
2023-05-05T09:45:49.083Z,3.37
2023-05-05T09:48:29.029Z,3.30
2023-05-05T09:50:56.776Z,3.10
2023-05-05T09:53:24.545Z,2.93
2023-05-05T09:55:58.562Z,3.50
2023-05-05T09:58:29.926Z,3.50
2023-05-05T10:00:58.258Z,3.00
2023-05-05T10:03:25.760Z,3.00
2023-05-05T10:05:55.733Z,2.87
2023-05-05T10:08:26.596Z,2.53
2023-05-05T10:11:06.491Z,2.60
2023-05-05T10:13:37.497Z,2.50
2023-05-05T10:16:07.266Z,2.80
2023-05-05T10:18:34.892Z,3.30
2023-05-05T10:21:03.962Z,2.80
2023-05-05T10:23:41.636Z,3.10
2023-05-05T10:26:13.432Z,3.40
2023-05-05T10:29:04.121Z,3.30
2023-05-05T10:31:41.850Z,3.23
2023-05-05T10:34:19.028Z,3.43
2023-05-05T10:36:45.891Z,2.97
2023-05-05T10:39:16.281Z,3.23
2023-05-05T10:41:44.171Z,2.83
2023-05-05T10:44:11.613Z,3.13
2023-05-05T10:46:39.107Z,2.72
2023-05-05T10:49:17.746Z,3.00
2023-05-05T10:52:00.118Z,3.42
2023-05-05T10:54:45.275Z,3.53
2023-05-05T10:57:12.438Z,3.30
2023-05-05T10:59:40.902Z,3.53
2023-05-05T11:02:30.143Z,3.45
2023-05-05T11:05:23.311Z,3.90
2023-05-05T11:07:51.812Z,3.72
2023-05-05T11:10:20.788Z,4.20
2023-05-05T11:13:00.299Z,4.00
2023-05-05T11:15:37.350Z,3.50
2023-05-05T11:18:07.495Z,3.40
2023-05-05T11:20:39.645Z,3.40
2023-05-05T11:23:06.360Z,3.30
2023-05-05T11:25:42.051Z,3.53
2023-05-05T11:28:10.799Z,3.63
2023-05-05T11:30:59.400Z,4.07
2023-05-05T11:33:33.522Z,3.75
2023-05-05T11:36:06.704Z,3.80
2023-05-05T11:38:36.577Z,3.42
2023-05-05T11:41:10.075Z,3.33
2023-05-05T11:43:37.009Z,3.25
2023-05-05T11:46:13.637Z,3.33
2023-05-05T11:48:47.863Z,3.35
2023-05-05T11:51:18.735Z,3.20
2023-05-05T11:53:49.804Z,3.40
2023-05-05T11:56:21.960Z,3.60
2023-05-05T11:59:04.575Z,3.20
2023-05-05T12:01:31.200Z,3.30
2023-05-05T12:03:58.049Z,3.55
2023-05-05T12:06:24.842Z,4.05
2023-05-05T12:08:51.553Z,3.50
2023-05-05T12:11:18.686Z,2.88
2023-05-05T12:13:46.406Z,3.15
2023-05-05T12:16:16.871Z,3.42
2023-05-05T12:18:43.502Z,3.03
2023-05-05T12:21:20.558Z,3.25
2023-05-05T12:23:47.109Z,3.05
2023-05-05T12:26:31.017Z,2.90
2023-05-05T12:29:01.317Z,2.70
2023-05-05T12:31:41.802Z,2.10
2023-05-05T12:34:10.295Z,2.30
2023-05-05T12:36:37.619Z,2.20
2023-05-05T12:39:07.584Z,2.50
2023-05-05T12:41:34.500Z,2.20
2023-05-05T12:44:03.198Z,2.55
2023-05-05T12:46:31.076Z,2.85
2023-05-05T12:49:05.943Z,2.10
2023-05-05T12:51:34.166Z,3.30
2023-05-05T12:54:08.185Z,2.40
2023-05-05T12:56:45.993Z,2.28
2023-05-05T12:59:21.854Z,2.47
2023-05-05T13:01:54.678Z,2.05
2023-05-05T13:04:27.941Z,1.90
2023-05-05T13:07:13.646Z,2.17
2023-05-05T13:09:40.737Z,2.60
2023-05-05T13:12:13.858Z,4.07
2023-05-05T13:14:41.549Z,3.60
2023-05-05T13:17:08.489Z,1.98
2023-05-05T13:19:42.449Z,1.92
2023-05-05T13:22:13.032Z,2.10
2023-05-05T13:24:50.719Z,1.83
2023-05-05T13:27:18.980Z,1.95
2023-05-05T13:29:46.114Z,1.60
2023-05-05T13:32:12.822Z,1.90
2023-05-05T13:34:39.638Z,2.03
2023-05-05T13:37:06.538Z,2.00
2023-05-05T13:39:33.207Z,1.88
2023-05-05T13:41:59.735Z,1.80
2023-05-05T13:44:26.331Z,2.35
2023-05-05T13:46:53.102Z,1.70
2023-05-05T13:49:20.214Z,2.13
2023-05-05T13:51:47.306Z,1.88
2023-05-05T13:54:14.000Z,1.90
2023-05-05T13:56:40.790Z,1.85
2023-05-05T13:59:07.495Z,2.03
2023-05-05T14:01:34.213Z,1.88
2023-05-05T14:04:03.554Z,2.10
2023-05-05T14:06:31.640Z,2.00
2023-05-05T14:08:58.248Z,1.90
2023-05-05T14:11:24.851Z,2.08
2023-05-05T14:13:52.002Z,1.90
2023-05-05T14:16:18.820Z,2.33
2023-05-05T14:18:45.703Z,2.10
2023-05-05T14:21:12.311Z,1.90
2023-05-05T14:23:38.952Z,2.10
2023-05-05T14:26:05.583Z,2.20
2023-05-05T14:28:32.234Z,2.30
2023-05-05T14:30:58.912Z,2.27
2023-05-05T14:33:25.535Z,2.17
2023-05-05T14:35:52.346Z,2.20
2023-05-05T14:38:19.158Z,2.23
2023-05-05T14:40:45.759Z,2.27
2023-05-05T14:43:12.359Z,2.23
2023-05-05T14:45:38.989Z,2.30
2023-05-05T14:48:05.821Z,2.20
2023-05-05T14:50:32.521Z,2.40
2023-05-05T14:52:59.060Z,2.23
2023-05-05T14:55:26.120Z,2.43
2023-05-05T14:57:52.755Z,2.17
2023-05-05T15:00:19.601Z,1.73
2023-05-05T15:02:48.150Z,1.90
2023-05-05T15:05:15.159Z,1.80
2023-05-05T15:07:42.030Z,2.20
2023-05-05T15:10:08.929Z,2.28
2023-05-05T15:12:35.520Z,2.10
2023-05-05T15:15:02.196Z,2.03
2023-05-05T15:17:30.734Z,2.15
2023-05-05T15:19:57.580Z,2.35
2023-05-05T15:22:24.132Z,2.40
2023-05-05T15:24:50.686Z,2.33
2023-05-05T15:27:18.302Z,2.50
2023-05-05T15:29:45.256Z,2.55
2023-05-05T15:32:11.995Z,2.15
2023-05-05T15:34:38.585Z,2.40
2023-05-05T15:37:05.445Z,2.00
2023-05-05T15:39:32.060Z,2.20
2023-05-05T15:42:00.408Z,2.45
2023-05-05T15:44:26.978Z,2.60
2023-05-05T15:46:53.706Z,2.53
2023-05-05T15:49:20.395Z,2.40
2023-05-05T15:51:48.408Z,2.03
2023-05-05T15:54:14.947Z,2.35
2023-05-05T15:56:41.594Z,2.47
2023-05-05T15:59:08.182Z,2.20
2023-05-05T16:01:36.332Z,2.42
2023-05-05T16:04:03.640Z,2.60
2023-05-05T16:06:30.610Z,2.35
2023-05-05T16:08:58.630Z,2.22
2023-05-05T16:11:26.523Z,2.47
2023-05-05T16:13:53.502Z,3.00
2023-05-05T16:16:20.257Z,2.30
2023-05-05T16:18:47.029Z,2.17
2023-05-05T16:21:13.671Z,2.15
2023-05-05T16:23:40.331Z,2.35
2023-05-05T16:26:07.007Z,2.30
2023-05-05T16:28:34.364Z,1.92
2023-05-05T16:31:02.327Z,2.05
2023-05-05T16:33:29.291Z,2.42
2023-05-05T16:35:56.265Z,2.30
2023-05-05T16:38:23.127Z,2.50
2023-05-05T16:40:49.693Z,1.90
2023-05-05T16:43:16.309Z,2.30
2023-05-05T16:45:43.546Z,1.85
2023-05-05T16:48:10.180Z,1.58
2023-05-05T16:50:36.752Z,2.05
2023-05-05T16:53:03.286Z,1.80
2023-05-05T16:55:30.195Z,1.80
2023-05-05T16:57:56.945Z,1.88
2023-05-05T17:00:23.480Z,2.17
2023-05-05T17:02:50.216Z,1.80
2023-05-05T17:05:17.724Z,2.10
2023-05-05T17:07:44.594Z,2.00
2023-05-05T17:10:11.136Z,2.10
2023-05-05T17:12:37.768Z,2.00
2023-05-05T17:15:04.784Z,2.03
2023-05-05T17:17:31.370Z,1.80
2023-05-05T17:19:57.959Z,1.93
2023-05-05T17:22:24.553Z,1.67
2023-05-05T17:24:51.070Z,2.00
2023-05-05T17:27:17.693Z,1.70
2023-05-05T17:29:44.262Z,1.80
2023-05-05T17:32:11.020Z,1.70
2023-05-05T17:34:37.787Z,2.00
2023-05-05T17:37:04.721Z,1.80
2023-05-05T17:39:31.356Z,2.00
2023-05-05T17:41:57.862Z,1.80
2023-05-05T17:44:24.444Z,1.73
2023-05-05T17:46:51.297Z,1.60
2023-05-05T17:49:17.933Z,1.90
2023-05-05T17:51:44.572Z,2.00
2023-05-05T17:54:11.630Z,1.83
2023-05-05T17:56:38.412Z,1.73
2023-05-05T17:59:05.051Z,2.00
2023-05-05T18:01:31.763Z,1.93
2023-05-05T18:03:58.466Z,1.93
2023-05-05T18:06:25.715Z,1.70
2023-05-05T18:08:52.588Z,2.10
2023-05-05T18:11:21.187Z,2.03
2023-05-05T18:13:47.775Z,1.67
2023-05-05T18:16:14.361Z,2.00
2023-05-05T18:18:41.316Z,1.87
2023-05-05T18:21:12.257Z,4.17
2023-05-05T18:23:42.009Z,2.40
2023-05-05T18:26:08.849Z,1.93
2023-05-05T18:28:36.727Z,2.20
2023-05-05T18:31:03.505Z,1.87
2023-05-05T18:33:30.119Z,2.00
2023-05-05T18:35:57.771Z,2.27
2023-05-05T18:38:24.470Z,2.00
2023-05-05T18:40:51.012Z,1.83
2023-05-05T18:43:17.574Z,1.80
2023-05-05T18:45:44.147Z,2.00
2023-05-05T18:48:11.669Z,1.90
2023-05-05T18:50:38.273Z,2.10
2023-05-05T18:53:04.844Z,2.00
2023-05-05T18:55:31.490Z,2.10
2023-05-05T18:57:58.392Z,2.50
2023-05-05T19:00:25.238Z,2.40
2023-05-05T19:02:51.955Z,2.43
2023-05-05T19:05:18.628Z,2.30
2023-05-05T19:07:45.584Z,2.20
2023-05-05T19:10:12.181Z,2.37
2023-05-05T19:12:38.930Z,2.10
2023-05-05T19:15:06.922Z,2.10
2023-05-05T19:17:33.925Z,2.60
2023-05-05T19:20:00.683Z,2.40
2023-05-05T19:22:27.347Z,2.17
2023-05-05T19:24:53.879Z,2.20
2023-05-05T19:27:20.510Z,2.43
2023-05-05T19:29:52.011Z,3.77
2023-05-05T19:32:21.592Z,2.07
2023-05-05T19:34:48.340Z,2.43
2023-05-05T19:37:14.985Z,2.47
2023-05-05T19:39:44.406Z,2.20
2023-05-05T19:42:11.191Z,2.50
2023-05-05T19:44:37.872Z,2.30
2023-05-05T19:47:04.746Z,2.03
2023-05-05T19:49:31.501Z,2.10
2023-05-05T19:51:59.400Z,1.97
2023-05-05T19:54:26.752Z,2.20
2023-05-05T19:56:55.218Z,2.23
2023-05-05T19:59:21.985Z,2.17
2023-05-05T20:01:48.653Z,2.27
2023-05-05T20:04:15.682Z,2.00
2023-05-05T20:06:42.193Z,2.00
2023-05-05T20:09:08.867Z,2.57
2023-05-05T20:11:35.757Z,2.20
2023-05-05T20:14:02.365Z,2.00
2023-05-05T20:16:29.095Z,2.20
2023-05-05T20:18:56.041Z,2.63
2023-05-05T20:21:22.666Z,2.30
2023-05-05T20:23:49.330Z,2.43
2023-05-05T20:26:16.046Z,2.70
2023-05-05T20:28:45.217Z,2.40
2023-05-05T20:31:14.998Z,2.60
2023-05-05T20:33:41.644Z,2.40
2023-05-05T20:36:08.461Z,2.03
2023-05-05T20:38:35.111Z,2.53
2023-05-05T20:41:01.752Z,2.03
2023-05-05T20:43:28.506Z,2.30
2023-05-05T20:45:55.162Z,2.00
2023-05-05T20:48:21.883Z,2.23
2023-05-05T20:50:48.492Z,2.50
2023-05-05T20:53:18.870Z,2.43
2023-05-05T20:55:45.666Z,2.30
2023-05-05T20:58:12.630Z,2.13
2023-05-05T21:00:39.336Z,2.30
2023-05-05T21:03:06.143Z,2.50
2023-05-05T21:05:32.792Z,3.37
2023-05-05T21:08:01.192Z,3.30
2023-05-05T21:10:29.047Z,2.40
2023-05-05T21:12:55.993Z,2.30
2023-05-05T21:15:22.745Z,1.97
2023-05-05T21:17:49.368Z,2.20
2023-05-05T21:20:16.495Z,2.27
2023-05-05T21:22:43.105Z,2.40
2023-05-05T21:25:21.019Z,2.70
2023-05-05T21:27:48.514Z,2.03
2023-05-05T21:30:15.693Z,2.50
2023-05-05T21:32:42.845Z,2.47
2023-05-05T21:35:10.161Z,2.30
2023-05-05T21:37:38.824Z,2.40
2023-05-05T21:40:10.847Z,2.60
2023-05-05T21:42:37.715Z,2.80
2023-05-05T21:45:04.613Z,2.77
2023-05-05T21:47:31.300Z,3.10
2023-05-05T21:49:58.874Z,3.27
2023-05-05T21:52:25.527Z,3.00
2023-05-05T21:54:52.274Z,3.70
2023-05-05T21:57:18.909Z,3.33
2023-05-05T21:59:45.674Z,3.57
2023-05-05T22:02:12.308Z,2.97
2023-05-05T22:04:38.942Z,3.00
2023-05-05T22:07:05.921Z,2.53
2023-05-05T22:09:32.547Z,3.17
2023-05-05T22:11:59.149Z,3.03
2023-05-05T22:14:25.723Z,3.90
2023-05-05T22:16:52.310Z,4.47
2023-05-05T22:19:18.814Z,3.30
2023-05-05T22:21:45.357Z,3.23
2023-05-05T22:24:12.034Z,3.20
2023-05-05T22:26:42.993Z,2.90
2023-05-05T22:29:10.819Z,3.20
2023-05-05T22:31:37.605Z,3.00
2023-05-05T22:34:04.397Z,2.83
2023-05-05T22:36:31.474Z,2.50
2023-05-05T22:38:57.987Z,2.90
2023-05-05T22:41:24.787Z,2.90
2023-05-05T22:43:51.377Z,3.20
2023-05-05T22:46:17.964Z,3.10
2023-05-05T22:48:44.485Z,2.90
2023-05-05T22:51:11.364Z,3.00
2023-05-05T22:53:38.652Z,3.43
2023-05-05T22:56:06.284Z,3.57
2023-05-05T22:58:32.808Z,3.20
2023-05-05T23:00:59.634Z,3.07
2023-05-05T23:03:26.299Z,3.53
2023-05-05T23:05:52.934Z,3.50
2023-05-05T23:08:20.515Z,3.77
2023-05-05T23:10:47.108Z,3.30
2023-05-05T23:13:13.877Z,3.50
2023-05-05T23:15:41.201Z,3.87
2023-05-05T23:18:07.877Z,3.60
2023-05-05T23:20:34.538Z,3.67
2023-05-05T23:23:01.280Z,3.53
2023-05-05T23:25:27.832Z,3.47
2023-05-05T23:27:54.582Z,3.33
2023-05-05T23:30:21.288Z,3.37
2023-05-05T23:32:47.972Z,4.03
2023-05-05T23:35:14.571Z,3.30
2023-05-05T23:37:41.288Z,3.50
2023-05-05T23:40:08.785Z,3.33
2023-05-05T23:42:35.444Z,3.73
2023-05-05T23:45:02.014Z,3.80
2023-05-05T23:47:28.614Z,3.90
2023-05-05T23:49:55.268Z,3.50
2023-05-05T23:52:22.557Z,3.67
2023-05-05T23:54:49.120Z,3.67
2023-05-05T23:57:16.083Z,3.77
2023-05-05T23:59:42.678Z,3.43
